Gibbs, Missouri
Current Conditions -  °F | °C
As of 1:55 PM on Thursday 29 Jan 2015 (Local Time) from KIRK Reporting Station
Overcast Overcast  
Wind Chill: 28°   Ceiling: 2100
Heat Index: 37°   Visibility: 10mi
Dew Point: 28°   Wind: 14mph
Humidity: 70%   Direction: 320°NW
Pressure: 30.26"   Gusts: 25mph
Location:  40.1°N, 92.42°W
Report Text: KIRK 291955Z AUTO 32012G22KT 10SM OVC021 03/M02 A3026 RMK AO2 PK WND 31026/1858 SNE11 SLP256 P0000 T00281022
Loading
Personal Weather Stations






























Interactive Weather Map New forecast layout! Learn more

10-Day Weather Forecast

Advertisements
Track Severe Weather on mobile